createdAt,value
2018-11-13T00:00:13.468Z,16.6
2018-11-13T00:01:03.548Z,16.6
2018-11-13T00:01:53.975Z,16.7
2018-11-13T00:02:44.528Z,16.6
2018-11-13T00:03:35.213Z,16.7
2018-11-13T00:04:24.565Z,16.7
2018-11-13T00:05:14.876Z,16.6
2018-11-13T00:06:04.705Z,16.7
2018-11-13T00:06:54.857Z,16.7
2018-11-13T00:25:09.157Z,16.4
2018-11-13T00:25:58.840Z,16.4
2018-11-13T00:26:49.338Z,16.4
2018-11-13T00:27:39.577Z,16.4
2018-11-13T00:28:28.816Z,16.4
2018-11-13T00:29:19.573Z,16.4
2018-11-13T00:30:10.498Z,16.4
2018-11-13T00:31:01.061Z,16.4
2018-11-13T00:31:49.552Z,16.4
2018-11-13T00:32:39.557Z,16.4
2018-11-13T00:33:27.796Z,16.4
2018-11-13T00:34:19.325Z,16.5
2018-11-13T00:35:10.363Z,16.5
2018-11-13T00:35:59.099Z,16.6
2018-11-13T00:36:49.697Z,16.6
2018-11-13T00:37:39.982Z,16.6
2018-11-13T00:38:29.776Z,16.6
2018-11-13T00:39:22.376Z,16.6
2018-11-13T00:40:09.959Z,16.6
2018-11-13T00:40:59.917Z,16.6
2018-11-13T00:41:50.500Z,16.6
2018-11-13T00:42:39.954Z,16.6
2018-11-13T00:43:29.200Z,16.6
2018-11-13T00:44:20.008Z,16.6
2018-11-13T00:45:09.849Z,16.6
2018-11-13T00:46:04.789Z,16.6
2018-11-13T00:46:50.110Z,16.6
2018-11-13T00:47:39.869Z,16.6
2018-11-13T00:48:32.787Z,16.6
2018-11-13T00:49:20.814Z,16.6
2018-11-13T00:50:11.684Z,16.6
2018-11-13T00:51:02.559Z,16.6
2018-11-13T00:51:51.254Z,16.6
2018-11-13T00:52:40.371Z,16.6
2018-11-13T00:53:29.507Z,16.6
2018-11-13T00:54:21.305Z,16.6
2018-11-13T00:55:12.327Z,16.6
2018-11-13T00:56:01.186Z,16.6
2018-11-13T00:56:52.571Z,16.6
2018-11-13T00:57:42.728Z,16.6
2018-11-13T00:58:32.229Z,16.6
2018-11-13T00:59:22.307Z,16.6
2018-11-13T01:00:12.273Z,16.6
2018-11-13T01:01:02.616Z,16.6
2018-11-13T01:01:51.384Z,16.6
2018-11-13T01:02:42.196Z,16.6
2018-11-13T01:03:31.400Z,16.6
2018-11-13T01:04:21.901Z,16.6
2018-11-13T01:05:13.916Z,16.6
2018-11-13T01:06:01.228Z,16.6
2018-11-13T01:06:52.004Z,16.6
2018-11-13T01:07:44.063Z,16.6
2018-11-13T01:08:32.498Z,16.6
2018-11-13T01:09:21.513Z,16.6
2018-11-13T01:10:12.468Z,16.6
2018-11-13T01:11:02.437Z,16.6
2018-11-13T01:11:53.104Z,16.6
2018-11-13T01:12:42.430Z,16.6
2018-11-13T01:13:33.935Z,16.6
2018-11-13T01:14:23.712Z,16.6
2018-11-13T01:15:15.438Z,16.6
2018-11-13T01:16:02.468Z,16.6
2018-11-13T01:16:52.607Z,16.6
2018-11-13T01:17:42.855Z,16.6
2018-11-13T01:18:33.147Z,16.6
2018-11-13T01:19:22.469Z,16.6
2018-11-13T01:20:13.265Z,16.6
2018-11-13T01:21:04.932Z,16.6
2018-11-13T01:21:53.690Z,16.6
2018-11-13T01:22:44.412Z,16.6
2018-11-13T01:23:33.570Z,16.6
2018-11-13T01:24:24.929Z,16.6
2018-11-13T01:25:13.304Z,16.6
2018-11-13T01:26:03.214Z,16.6
2018-11-13T01:26:53.676Z,16.6
2018-11-13T01:27:44.344Z,16.6
2018-11-13T01:28:34.104Z,16.6
2018-11-13T01:29:23.718Z,16.6
2018-11-13T01:30:12.754Z,16.6
2018-11-13T01:31:03.143Z,16.6
2018-11-13T01:31:54.176Z,16.6
2018-11-13T01:32:43.472Z,16.6
2018-11-13T01:33:34.116Z,16.6
2018-11-13T01:34:24.315Z,16.6
2018-11-13T01:35:14.432Z,16.6
2018-11-13T01:36:05.094Z,16.6
2018-11-13T01:36:54.059Z,16.6
2018-11-13T01:37:44.407Z,16.6
2018-11-13T01:38:34.390Z,16.6
2018-11-13T01:39:24.688Z,16.6
2018-11-13T01:40:13.320Z,16.6
2018-11-13T01:41:03.773Z,16.6
2018-11-13T01:41:56.561Z,16.6
2018-11-13T01:42:44.173Z,16.6
2018-11-13T01:43:33.180Z,16.6
2018-11-13T01:44:24.105Z,16.6
2018-11-13T01:45:14.365Z,16.6
2018-11-13T01:46:05.257Z,16.6
2018-11-13T01:46:53.985Z,16.6
2018-11-13T01:47:44.550Z,16.6
2018-11-13T01:48:34.890Z,16.6
2018-11-13T01:49:26.420Z,16.6
2018-11-13T01:50:13.865Z,16.6
2018-11-13T01:51:04.012Z,16.6
2018-11-13T01:51:55.800Z,16.6
2018-11-13T01:52:44.511Z,16.6
2018-11-13T01:53:35.152Z,16.6
2018-11-13T01:54:25.959Z,16.6
2018-11-13T01:55:14.385Z,16.6
2018-11-13T01:56:04.845Z,16.6
2018-11-13T01:56:54.862Z,16.6
2018-11-13T01:57:45.074Z,16.6
2018-11-13T01:58:35.116Z,16.6
2018-11-13T01:59:25.705Z,16.6
2018-11-13T02:00:16.187Z,16.6
2018-11-13T02:01:06.169Z,16.6
2018-11-13T02:01:56.027Z,16.6
2018-11-13T02:02:46.757Z,16.6
2018-11-13T02:03:35.396Z,16.6
2018-11-13T02:04:25.130Z,16.6
2018-11-13T02:05:15.304Z,16.6
2018-11-13T02:06:05.437Z,16.6
2018-11-13T02:06:55.889Z,16.6
2018-11-13T02:07:47.204Z,16.6
2018-11-13T02:08:36.254Z,16.6
2018-11-13T02:09:26.803Z,16.6
2018-11-13T02:10:17.206Z,16.6
2018-11-13T02:11:06.021Z,16.6
2018-11-13T02:11:57.081Z,16.6
2018-11-13T02:12:46.936Z,16.6
2018-11-13T02:13:36.803Z,16.6
2018-11-13T02:14:26.678Z,16.6
2018-11-13T02:15:16.936Z,16.6
2018-11-13T02:16:08.396Z,16.6
2018-11-13T02:16:57.374Z,16.6
2018-11-13T02:17:47.408Z,16.6
2018-11-13T02:18:36.101Z,16.6
2018-11-13T02:19:27.356Z,16.6
2018-11-13T02:20:15.868Z,16.6
2018-11-13T02:21:06.185Z,16.6
2018-11-13T02:21:56.145Z,16.6
2018-11-13T02:22:47.340Z,16.6
2018-11-13T02:23:36.807Z,16.5
2018-11-13T02:24:25.623Z,16.6
2018-11-13T02:25:16.970Z,16.6
2018-11-13T02:26:07.177Z,16.6
2018-11-13T02:26:57.290Z,16.6
2018-11-13T02:27:48.412Z,16.6
2018-11-13T02:28:37.602Z,16.6
2018-11-13T02:29:28.017Z,16.6
2018-11-13T02:30:17.512Z,16.6
2018-11-13T02:31:07.951Z,16.6
2018-11-13T02:31:58.743Z,16.6
2018-11-13T02:32:48.837Z,16.5
2018-11-13T02:33:37.575Z,16.6
2018-11-13T02:34:27.752Z,16.6
2018-11-13T02:35:18.748Z,16.6
2018-11-13T02:36:07.650Z,16.5
2018-11-13T02:36:58.539Z,16.5
2018-11-13T02:37:48.328Z,16.5
2018-11-13T02:38:38.621Z,16.6
2018-11-13T02:39:28.939Z,16.5
2018-11-13T02:40:18.566Z,16.5
2018-11-13T02:41:08.099Z,16.5
2018-11-13T02:41:59.454Z,16.6
2018-11-13T02:42:49.442Z,16.6
2018-11-13T02:43:38.494Z,16.6
2018-11-13T02:44:29.204Z,16.6
2018-11-13T02:45:18.596Z,16.5
2018-11-13T02:46:08.705Z,16.6
2018-11-13T02:46:58.247Z,16.5
2018-11-13T02:47:48.775Z,16.5
2018-11-13T02:48:37.101Z,16.6
2018-11-13T02:49:29.581Z,16.6
2018-11-13T02:50:18.521Z,16.5
2018-11-13T02:51:09.776Z,16.6
2018-11-13T02:51:59.748Z,16.6
2018-11-13T02:52:50.165Z,16.5
2018-11-13T02:53:38.985Z,16.6
2018-11-13T02:54:30.080Z,16.5
2018-11-13T02:55:19.630Z,16.5
2018-11-13T02:56:08.306Z,16.6
2018-11-13T02:56:59.746Z,16.6
2018-11-13T02:57:50.346Z,16.5
2018-11-13T02:58:40.906Z,16.6
2018-11-13T02:59:30.921Z,16.6
2018-11-13T03:00:20.449Z,16.6
2018-11-13T03:01:10.536Z,16.5
2018-11-13T03:01:59.895Z,16.6
2018-11-13T03:02:50.361Z,16.6
2018-11-13T03:03:40.389Z,16.5
2018-11-13T03:04:29.662Z,16.6
2018-11-13T03:05:21.145Z,16.5
2018-11-13T03:06:10.813Z,16.5
2018-11-13T03:07:00.364Z,16.5
2018-11-13T03:07:51.585Z,16.5
2018-11-13T03:08:41.330Z,16.6
2018-11-13T03:09:30.349Z,16.5
2018-11-13T03:10:20.447Z,16.6
2018-11-13T03:11:11.500Z,16.5
2018-11-13T03:12:00.065Z,16.5
2018-11-13T03:12:51.723Z,16.5
2018-11-13T03:13:42.024Z,16.5
2018-11-13T03:14:30.742Z,16.5
2018-11-13T03:15:21.344Z,16.5
2018-11-13T03:16:11.564Z,16.5
2018-11-13T03:17:01.885Z,16.5
2018-11-13T03:17:51.532Z,16.5
2018-11-13T03:18:41.069Z,16.5
2018-11-13T03:19:30.812Z,16.5
2018-11-13T03:20:21.397Z,16.5
2018-11-13T03:21:11.161Z,16.5
2018-11-13T03:22:00.873Z,16.5
2018-11-13T03:22:51.434Z,16.5
2018-11-13T03:23:41.863Z,16.5
2018-11-13T03:24:31.692Z,16.5
2018-11-13T03:25:21.469Z,16.5
2018-11-13T03:26:12.206Z,16.5
2018-11-13T03:27:01.550Z,16.5
2018-11-13T03:27:51.952Z,16.5
2018-11-13T03:28:42.186Z,16.5
2018-11-13T03:29:31.564Z,16.5
2018-11-13T03:30:23.022Z,16.5
2018-11-13T03:31:14.362Z,16.5
2018-11-13T03:32:02.504Z,16.5
2018-11-13T03:32:52.933Z,16.5
2018-11-13T03:33:42.649Z,16.5
2018-11-13T03:34:32.015Z,16.5
2018-11-13T03:35:21.938Z,16.5
2018-11-13T03:36:13.006Z,16.5
2018-11-13T03:37:02.643Z,16.5
2018-11-13T03:37:52.845Z,16.5
2018-11-13T03:38:43.460Z,16.5
2018-11-13T03:39:33.592Z,16.5
2018-11-13T03:40:22.849Z,16.5
2018-11-13T03:41:12.245Z,16.5
2018-11-13T03:42:02.660Z,16.5
2018-11-13T03:42:53.267Z,16.5
2018-11-13T03:43:43.570Z,16.5
2018-11-13T03:44:33.409Z,16.5
2018-11-13T03:45:21.995Z,16.5
2018-11-13T03:46:12.912Z,16.5
2018-11-13T03:47:03.640Z,16.6
2018-11-13T03:47:53.372Z,16.5
2018-11-13T03:48:43.416Z,16.5
2018-11-13T03:49:33.100Z,16.5
2018-11-13T03:50:23.649Z,16.5
2018-11-13T03:51:14.087Z,16.5
2018-11-13T03:52:03.952Z,16.5
2018-11-13T03:52:53.029Z,16.5
2018-11-13T03:53:43.581Z,16.5
2018-11-13T03:54:33.614Z,16.5
2018-11-13T03:55:23.982Z,16.5
2018-11-13T03:56:12.725Z,16.5
2018-11-13T03:57:03.456Z,16.5
2018-11-13T03:57:54.214Z,16.5
2018-11-13T03:58:44.471Z,16.5
2018-11-13T03:59:33.072Z,16.5
2018-11-13T04:00:24.411Z,16.5
2018-11-13T04:01:14.836Z,16.5
2018-11-13T04:02:04.119Z,16.5
2018-11-13T04:02:55.460Z,16.4
2018-11-13T04:03:45.841Z,16.5
2018-11-13T04:04:34.321Z,16.5
2018-11-13T04:05:25.092Z,16.4
2018-11-13T04:06:14.581Z,16.4
2018-11-13T04:07:04.782Z,16.4
2018-11-13T04:07:55.309Z,16.5
2018-11-13T04:08:45.509Z,16.4
2018-11-13T04:09:35.002Z,16.4
2018-11-13T04:10:23.683Z,16.4
2018-11-13T04:11:15.541Z,16.4
2018-11-13T04:12:05.378Z,16.4
2018-11-13T04:12:56.078Z,16.4
2018-11-13T04:13:45.096Z,16.4
2018-11-13T04:14:35.168Z,16.4
2018-11-13T04:15:25.631Z,16.4
2018-11-13T04:16:15.256Z,16.5
2018-11-13T04:17:05.443Z,16.5
2018-11-13T04:17:56.712Z,16.5
2018-11-13T04:18:46.000Z,16.5
2018-11-13T04:19:36.588Z,16.4
2018-11-13T04:20:26.720Z,16.4
2018-11-13T04:21:15.728Z,16.5
2018-11-13T04:22:05.435Z,16.5
2018-11-13T04:22:55.426Z,16.5
2018-11-13T04:23:46.447Z,16.4
2018-11-13T04:24:35.883Z,16.5
2018-11-13T04:25:26.642Z,16.5
2018-11-13T04:26:15.995Z,16.5
2018-11-13T04:27:07.150Z,16.5
2018-11-13T04:27:55.714Z,16.5
2018-11-13T04:28:46.142Z,16.4
2018-11-13T04:29:35.534Z,16.5
2018-11-13T04:30:27.540Z,16.5
2018-11-13T04:31:16.618Z,16.5
2018-11-13T04:32:07.144Z,16.5
2018-11-13T04:32:56.583Z,16.4
2018-11-13T04:33:47.016Z,16.4
2018-11-13T04:34:37.417Z,16.4
2018-11-13T04:35:26.980Z,16.4
2018-11-13T04:36:16.463Z,16.4
2018-11-13T04:54:22.361Z,16.3
2018-11-13T04:55:12.331Z,16.3
2018-11-13T04:56:02.474Z,16.3
2018-11-13T04:56:52.118Z,16.3
2018-11-13T04:57:42.683Z,16.2
2018-11-13T04:58:32.792Z,16.2
2018-11-13T04:59:22.856Z,16.2
2018-11-13T05:00:12.188Z,16.3
2018-11-13T05:01:02.183Z,16.3
2018-11-13T05:01:52.771Z,16.3
2018-11-13T05:02:42.635Z,16.3
2018-11-13T05:03:32.298Z,16.3
2018-11-13T05:04:22.315Z,16.3
2018-11-13T05:05:13.963Z,16.3
2018-11-13T05:06:02.481Z,16.3
2018-11-13T05:06:52.768Z,16.4
2018-11-13T05:07:42.303Z,16.4
2018-11-13T05:08:33.013Z,16.4
2018-11-13T05:09:24.565Z,16.3
2018-11-13T05:10:15.805Z,16.4
2018-11-13T05:11:02.196Z,16.3
2018-11-13T05:11:51.547Z,16.4
2018-11-13T05:12:43.522Z,16.4
2018-11-13T05:13:33.775Z,16.4
2018-11-13T05:14:24.480Z,16.4
2018-11-13T05:15:13.617Z,16.4
2018-11-13T05:16:03.507Z,16.4
2018-11-13T05:16:52.815Z,16.4
2018-11-13T05:17:43.221Z,16.4
2018-11-13T05:18:33.977Z,16.4
2018-11-13T05:19:22.992Z,16.4
2018-11-13T05:20:13.825Z,16.4
2018-11-13T05:21:03.557Z,16.4
2018-11-13T05:21:54.017Z,16.4
2018-11-13T05:22:43.654Z,16.4
2018-11-13T05:23:35.125Z,16.4
2018-11-13T05:24:23.112Z,16.4
2018-11-13T05:25:13.685Z,16.4
2018-11-13T05:26:04.152Z,16.4
2018-11-13T05:26:53.829Z,16.4
2018-11-13T05:27:44.426Z,16.4
2018-11-13T05:28:34.237Z,16.4
2018-11-13T05:29:24.659Z,16.4
2018-11-13T05:30:14.477Z,16.4
2018-11-13T05:31:03.078Z,16.4
2018-11-13T05:31:53.964Z,16.4
2018-11-13T05:32:44.453Z,16.4
2018-11-13T05:33:35.049Z,16.4
2018-11-13T05:34:25.243Z,16.4
2018-11-13T05:35:15.890Z,16.4
2018-11-13T05:36:03.237Z,16.4
2018-11-13T05:36:53.872Z,16.5
2018-11-13T05:37:44.838Z,16.5
2018-11-13T05:38:34.862Z,16.5
2018-11-13T05:39:23.591Z,16.5
2018-11-13T05:40:14.281Z,16.5
2018-11-13T05:41:04.603Z,16.4
2018-11-13T05:41:55.019Z,16.4
2018-11-13T05:42:45.404Z,16.4
2018-11-13T05:43:34.796Z,16.4
2018-11-13T05:44:24.048Z,16.4
2018-11-13T05:45:15.096Z,16.4
2018-11-13T05:46:05.811Z,16.4
2018-11-13T05:46:55.611Z,16.4
2018-11-13T05:47:45.485Z,16.4
2018-11-13T05:48:34.916Z,16.5
2018-11-13T05:49:23.925Z,16.4
2018-11-13T05:50:15.440Z,16.4
2018-11-13T05:51:05.950Z,16.4
2018-11-13T05:51:55.425Z,16.4
2018-11-13T05:52:44.813Z,16.4
2018-11-13T05:53:34.235Z,16.4
2018-11-13T05:54:25.340Z,16.4
2018-11-13T05:55:16.206Z,16.4
2018-11-13T05:56:06.406Z,16.4
2018-11-13T05:56:55.826Z,16.4
2018-11-13T05:57:46.782Z,16.4
2018-11-13T05:58:35.569Z,16.4
2018-11-13T05:59:26.223Z,16.4
2018-11-13T06:00:14.552Z,16.4
2018-11-13T06:01:05.657Z,16.4
2018-11-13T06:01:55.919Z,16.4
2018-11-13T06:02:45.579Z,16.3
2018-11-13T06:03:36.319Z,16.4
2018-11-13T06:04:26.435Z,16.4
2018-11-13T06:05:16.862Z,16.4
2018-11-13T06:06:07.136Z,16.4
2018-11-13T06:06:57.652Z,16.4
2018-11-13T06:07:46.467Z,16.4
2018-11-13T06:08:38.254Z,16.4
2018-11-13T06:09:27.565Z,16.4
2018-11-13T06:10:18.188Z,16.4
2018-11-13T06:11:07.406Z,16.4
2018-11-13T06:11:57.866Z,16.3
2018-11-13T06:12:46.562Z,16.3
2018-11-13T06:13:37.319Z,16.3
2018-11-13T06:14:28.179Z,16.4
2018-11-13T06:15:17.804Z,16.3
2018-11-13T06:16:07.764Z,16.3
2018-11-13T06:16:57.439Z,16.3
2018-11-13T06:17:47.152Z,16.3
2018-11-13T06:18:37.118Z,16.3
2018-11-13T06:19:27.983Z,16.3
2018-11-13T06:20:17.596Z,16.3
2018-11-13T06:21:08.146Z,16.3
2018-11-13T06:21:58.464Z,16.3
2018-11-13T06:22:48.391Z,16.3
2018-11-13T06:23:38.476Z,16.3
2018-11-13T06:24:29.148Z,16.3
2018-11-13T06:25:17.904Z,16.3
2018-11-13T06:26:08.316Z,16.3
2018-11-13T06:26:58.735Z,16.3
2018-11-13T06:27:47.303Z,16.3
2018-11-13T06:28:38.807Z,16.3
2018-11-13T06:29:27.987Z,16.3
2018-11-13T06:30:18.269Z,16.3
2018-11-13T06:31:08.622Z,16.3
2018-11-13T06:31:58.955Z,16.3
2018-11-13T06:32:48.960Z,16.3
2018-11-13T06:33:39.365Z,16.3
2018-11-13T06:34:29.401Z,16.3
2018-11-13T06:35:18.791Z,16.3
2018-11-13T06:36:09.278Z,16.3
2018-11-13T06:36:59.305Z,16.3
2018-11-13T06:37:50.636Z,16.3
2018-11-13T06:38:39.735Z,16.3
2018-11-13T06:39:29.145Z,16.3
2018-11-13T06:40:19.076Z,16.3
2018-11-13T06:41:08.692Z,16.3
2018-11-13T06:41:58.261Z,16.3
2018-11-13T06:42:49.542Z,16.3
2018-11-13T06:43:38.894Z,16.3
2018-11-13T06:44:28.757Z,16.3
2018-11-13T06:45:18.700Z,16.3
2018-11-13T06:46:10.795Z,16.3
2018-11-13T06:46:59.236Z,16.3
2018-11-13T06:47:49.796Z,16.3
2018-11-13T06:48:38.933Z,16.3
2018-11-13T06:49:30.809Z,16.3
2018-11-13T06:50:21.357Z,16.3
2018-11-13T06:51:10.244Z,16.3
2018-11-13T06:51:59.902Z,16.3
2018-11-13T06:52:49.861Z,16.3
2018-11-13T06:53:38.824Z,16.3
2018-11-13T06:54:29.599Z,16.3
2018-11-13T06:55:20.435Z,16.3
2018-11-13T06:56:10.034Z,16.3
2018-11-13T06:56:59.808Z,16.3
2018-11-13T06:57:50.645Z,16.3
2018-11-13T06:58:40.466Z,16.3
2018-11-13T06:59:29.913Z,16.3
2018-11-13T07:00:21.426Z,16.3
2018-11-13T07:01:10.848Z,16.3
2018-11-13T07:02:00.809Z,16.3
2018-11-13T07:02:51.523Z,16.3
2018-11-13T07:03:41.121Z,16.3
2018-11-13T07:04:31.311Z,16.3
2018-11-13T07:05:22.043Z,16.3
2018-11-13T07:06:10.933Z,16.3
2018-11-13T07:07:01.353Z,16.3
2018-11-13T07:07:50.120Z,16.3
2018-11-13T07:08:40.786Z,16.3
2018-11-13T07:09:30.921Z,16.3
2018-11-13T07:10:20.714Z,16.3
2018-11-13T07:11:12.344Z,16.3
2018-11-13T07:12:00.918Z,16.3
2018-11-13T07:12:52.909Z,16.3
2018-11-13T07:13:41.419Z,16.3
2018-11-13T07:14:32.303Z,16.3
2018-11-13T07:15:20.882Z,16.3
2018-11-13T07:16:12.248Z,16.3
2018-11-13T07:17:02.368Z,16.3
2018-11-13T07:17:51.968Z,16.3
2018-11-13T07:18:42.586Z,16.3
2018-11-13T07:19:30.788Z,16.3
2018-11-13T07:20:21.870Z,16.3
2018-11-13T07:21:11.733Z,16.3
2018-11-13T07:22:01.563Z,16.3
2018-11-13T07:22:51.957Z,16.3
2018-11-13T07:23:42.793Z,16.3
2018-11-13T07:24:32.516Z,16.3
2018-11-13T07:25:23.409Z,16.3
2018-11-13T07:26:12.803Z,16.3
2018-11-13T07:27:04.229Z,16.3
2018-11-13T07:27:53.240Z,16.3
2018-11-13T07:28:41.605Z,16.3
2018-11-13T07:29:32.566Z,16.3
2018-11-13T07:30:22.585Z,16.3
2018-11-13T07:31:14.168Z,16.3
2018-11-13T07:32:03.836Z,16.3
2018-11-13T07:32:54.242Z,16.3
2018-11-13T07:33:44.015Z,16.3
2018-11-13T07:34:35.455Z,16.3
2018-11-13T07:35:23.437Z,16.3
2018-11-13T07:36:11.269Z,16.3
2018-11-13T07:37:03.022Z,16.3
2018-11-13T07:37:53.591Z,16.3
2018-11-13T07:38:42.877Z,16.3
2018-11-13T07:39:33.605Z,16.3
2018-11-13T07:40:23.811Z,16.3
2018-11-13T07:41:14.782Z,16.3
2018-11-13T07:42:04.406Z,16.3
2018-11-13T07:42:54.389Z,16.3
2018-11-13T07:43:43.594Z,16.3
2018-11-13T07:44:33.441Z,16.3
2018-11-13T07:45:24.660Z,16.3
2018-11-13T07:46:14.396Z,16.3
2018-11-13T07:47:06.168Z,16.3
2018-11-13T07:47:58.395Z,16.3
2018-11-13T07:48:44.527Z,16.3
2018-11-13T07:49:35.228Z,16.4
2018-11-13T07:50:24.234Z,16.4
2018-11-13T07:51:16.695Z,16.4
2018-11-13T07:52:04.515Z,16.4
2018-11-13T07:52:54.923Z,16.4
2018-11-13T07:53:45.254Z,16.4
2018-11-13T07:54:34.796Z,16.4
2018-11-13T07:55:25.358Z,16.4
2018-11-13T07:56:15.697Z,16.4
2018-11-13T07:57:05.490Z,16.4
2018-11-13T07:57:55.530Z,16.4
2018-11-13T07:58:45.727Z,16.4
2018-11-13T07:59:34.931Z,16.4
2018-11-13T08:00:25.888Z,16.4
2018-11-13T08:01:15.784Z,16.4
2018-11-13T08:02:05.085Z,16.4
2018-11-13T08:02:55.635Z,16.4
2018-11-13T08:03:46.913Z,16.4
2018-11-13T08:04:35.910Z,16.5
2018-11-13T08:05:25.784Z,16.5
2018-11-13T08:06:16.677Z,16.5
2018-11-13T08:07:06.194Z,16.5
2018-11-13T08:07:56.739Z,16.6
2018-11-13T08:08:46.472Z,16.6
2018-11-13T08:09:36.190Z,16.7
2018-11-13T08:10:25.942Z,16.8
2018-11-13T08:11:15.846Z,16.8
2018-11-13T08:12:05.806Z,16.8
2018-11-13T08:12:57.838Z,16.8
2018-11-13T08:13:47.507Z,16.8
2018-11-13T08:14:36.811Z,16.9
2018-11-13T08:15:26.381Z,16.9
2018-11-13T08:16:16.539Z,16.9
2018-11-13T08:17:06.852Z,16.9
2018-11-13T08:17:57.018Z,16.9
2018-11-13T08:18:47.130Z,16.9
2018-11-13T08:19:35.445Z,16.9
2018-11-13T08:20:26.036Z,16.9
2018-11-13T08:21:18.631Z,16.9
2018-11-13T08:22:09.160Z,16.9
2018-11-13T08:22:57.231Z,16.9
2018-11-13T08:23:47.571Z,16.9
2018-11-13T08:24:37.106Z,16.9
2018-11-13T08:25:28.426Z,16.9
2018-11-13T08:26:17.040Z,16.9
2018-11-13T08:27:07.908Z,16.9
2018-11-13T08:27:57.791Z,16.9
2018-11-13T08:28:47.887Z,16.9
2018-11-13T08:29:38.058Z,16.9
2018-11-13T08:37:07.295Z,16.9
2018-11-13T08:42:07.899Z,17.1
2018-11-13T08:42:58.169Z,17.1
2018-11-13T09:08:48.976Z,16.9
2018-11-13T09:09:39.735Z,16.9
2018-11-13T09:10:29.795Z,16.9
2018-11-13T09:11:19.861Z,16.9
2018-11-13T09:12:10.766Z,16.9
2018-11-13T09:12:59.327Z,16.9
2018-11-13T09:13:50.181Z,16.9
2018-11-13T09:14:40.202Z,16.9
2018-11-13T09:18:01.693Z,17.1
2018-11-13T09:18:52.188Z,17.1
2018-11-13T09:19:44.608Z,17.1
2018-11-13T09:20:29.958Z,17.1
2018-11-13T09:21:20.781Z,17.1
2018-11-13T09:22:11.115Z,17.1
2018-11-13T09:23:01.801Z,17.1
2018-11-13T09:23:51.222Z,17.1
2018-11-13T09:24:40.157Z,17.1
2018-11-13T09:25:30.316Z,17.2
2018-11-13T09:26:21.041Z,17.2
2018-11-13T09:27:10.613Z,17.2
2018-11-13T09:28:01.093Z,17.2
2018-11-13T09:28:50.996Z,17.2
2018-11-13T09:29:41.387Z,17.2
2018-11-13T09:30:34.715Z,17.1
2018-11-13T09:31:21.297Z,17.1
2018-11-13T09:32:11.733Z,17.2
2018-11-13T09:33:01.846Z,17.2
2018-11-13T09:33:50.751Z,17.2
2018-11-13T09:34:41.488Z,17.2
2018-11-13T09:35:31.870Z,17.2
2018-11-13T09:36:20.995Z,17.2
2018-11-13T09:37:11.377Z,17.2
2018-11-13T09:38:01.245Z,17.2
2018-11-13T09:38:52.487Z,17.2
2018-11-13T09:39:42.975Z,17.3
2018-11-13T09:40:33.032Z,17.3
2018-11-13T09:41:21.838Z,17.2
2018-11-13T09:42:12.284Z,17.2
2018-11-13T09:43:02.718Z,17.2
2018-11-13T09:43:51.628Z,17.2
2018-11-13T09:44:43.787Z,17.3
2018-11-13T09:45:32.865Z,17.3
2018-11-13T09:46:23.706Z,17.3
2018-11-13T09:47:13.335Z,17.3
2018-11-13T09:48:03.265Z,17.3
2018-11-13T09:48:53.411Z,17.3
2018-11-13T09:49:43.024Z,17.3
2018-11-13T09:50:33.085Z,17.3
2018-11-13T09:51:21.776Z,17.3
2018-11-13T09:52:12.697Z,17.3
2018-11-13T09:53:03.125Z,17.3
2018-11-13T09:53:54.479Z,17.3
2018-11-13T09:54:43.258Z,17.3
2018-11-13T09:55:33.911Z,17.3
2018-11-13T09:56:22.813Z,17.3
2018-11-13T09:57:13.667Z,17.3
2018-11-13T09:58:03.983Z,17.3
2018-11-13T09:58:53.876Z,17.3
2018-11-13T09:59:42.361Z,17.3
2018-11-13T10:00:35.653Z,17.3
2018-11-13T10:01:30.359Z,17.3
2018-11-13T10:02:26.621Z,17.3
2018-11-13T10:03:15.779Z,17.3
2018-11-13T10:03:58.802Z,17.3
2018-11-13T10:04:50.800Z,17.3
2018-11-13T10:05:34.697Z,17.3
2018-11-13T10:06:24.436Z,17.3
2018-11-13T10:07:14.136Z,17.3
2018-11-13T10:08:04.318Z,17.3
2018-11-13T10:08:53.658Z,17.3
2018-11-13T10:09:43.359Z,17.3
2018-11-13T10:10:33.886Z,17.3
2018-11-13T10:11:23.513Z,17.4
2018-11-13T10:12:14.503Z,17.3
2018-11-13T10:13:04.325Z,17.3
2018-11-13T10:13:55.438Z,17.3
2018-11-13T10:14:44.113Z,17.3
2018-11-13T10:15:34.638Z,17.3
2018-11-13T10:16:24.632Z,17.4
2018-11-13T10:17:16.330Z,17.3
2018-11-13T10:18:07.793Z,17.3
2018-11-13T10:18:54.835Z,17.4
2018-11-13T10:19:45.068Z,17.4
2018-11-13T10:20:34.336Z,17.4
2018-11-13T10:21:25.850Z,17.4
2018-11-13T10:22:15.473Z,17.4
2018-11-13T10:23:05.345Z,17.4
2018-11-13T10:23:54.298Z,17.4
2018-11-13T10:24:45.592Z,17.4
2018-11-13T10:25:35.137Z,17.4
2018-11-13T10:26:24.983Z,17.4
2018-11-13T10:27:15.771Z,17.4
2018-11-13T10:28:05.906Z,17.4
2018-11-13T10:28:55.383Z,17.4
2018-11-13T10:29:45.959Z,17.4
2018-11-13T10:30:35.900Z,17.3
2018-11-13T10:31:25.135Z,17.3
2018-11-13T10:32:16.162Z,17.4
2018-11-13T10:33:06.125Z,17.4
2018-11-13T10:33:56.007Z,17.4
2018-11-13T10:34:45.764Z,17.4
2018-11-13T10:35:36.485Z,17.4
2018-11-13T10:36:26.472Z,17.4
2018-11-13T10:37:16.352Z,17.4
2018-11-13T10:38:06.420Z,17.4
2018-11-13T10:38:54.729Z,17.4
2018-11-13T10:39:46.481Z,17.4
2018-11-13T10:40:38.694Z,17.4
2018-11-13T10:41:27.528Z,17.4
2018-11-13T10:42:16.236Z,17.4
2018-11-13T10:43:06.112Z,17.4
2018-11-13T10:43:56.061Z,17.4
2018-11-13T10:44:46.298Z,17.4
2018-11-13T10:45:36.916Z,17.4
2018-11-13T10:46:26.408Z,17.4
2018-11-13T10:47:15.791Z,17.4
2018-11-13T10:48:04.643Z,17.4
2018-11-13T10:48:57.897Z,17.4
2018-11-13T10:49:46.708Z,17.4
2018-11-13T10:50:37.871Z,17.5
2018-11-13T10:51:27.048Z,17.4
2018-11-13T10:52:17.380Z,17.5
2018-11-13T10:53:07.185Z,17.5
2018-11-13T10:53:56.849Z,17.4
2018-11-13T10:54:46.801Z,17.5
2018-11-13T10:55:37.821Z,17.5
2018-11-13T10:56:28.353Z,17.5
2018-11-13T10:57:16.784Z,17.5
2018-11-13T10:58:08.005Z,17.5
2018-11-13T10:58:56.976Z,17.5
2018-11-13T10:59:47.610Z,17.5
2018-11-13T11:00:38.220Z,17.5
2018-11-13T11:01:27.800Z,17.5
2018-11-13T11:02:19.456Z,17.6
2018-11-13T11:03:10.005Z,17.6
2018-11-13T11:03:58.734Z,17.5
2018-11-13T11:04:48.310Z,17.6
2018-11-13T11:05:38.057Z,17.5
2018-11-13T11:06:28.677Z,17.5
2018-11-13T11:07:18.664Z,17.5
2018-11-13T11:08:09.951Z,17.6
2018-11-13T11:08:57.530Z,17.6
2018-11-13T11:09:47.395Z,17.6
2018-11-13T11:10:38.436Z,17.6
2018-11-13T11:11:29.198Z,17.6
2018-11-13T11:12:18.212Z,17.6
2018-11-13T11:13:12.330Z,17.6
2018-11-13T11:14:02.723Z,17.6
2018-11-13T11:14:48.779Z,17.6
2018-11-13T11:15:38.899Z,17.6
2018-11-13T11:16:29.181Z,17.6
2018-11-13T11:17:18.833Z,17.6
2018-11-13T11:18:09.907Z,17.6
2018-11-13T11:19:00.548Z,17.6
2018-11-13T11:19:49.426Z,17.6
2018-11-13T11:20:39.549Z,17.6
2018-11-13T11:21:28.891Z,17.6
2018-11-13T11:22:19.349Z,17.6
2018-11-13T11:23:09.400Z,17.6
2018-11-13T11:24:00.745Z,17.6
2018-11-13T11:24:49.489Z,17.6
2018-11-13T11:25:38.879Z,17.6
2018-11-13T11:26:30.373Z,17.6
2018-11-13T11:27:19.654Z,17.6
2018-11-13T11:28:09.243Z,17.6
2018-11-13T11:28:59.834Z,17.6
2018-11-13T11:29:50.119Z,17.6
2018-11-13T11:30:39.479Z,17.6
2018-11-13T11:31:29.935Z,17.6
2018-11-13T11:32:19.741Z,17.6
2018-11-13T11:33:09.411Z,17.6
2018-11-13T11:33:59.705Z,17.6
2018-11-13T11:34:49.968Z,17.6
2018-11-13T11:35:40.541Z,17.6
2018-11-13T11:36:28.695Z,17.6
2018-11-13T11:37:20.688Z,17.6
2018-11-13T11:38:09.107Z,17.7
2018-11-13T11:39:03.977Z,17.6
2018-11-13T11:39:50.464Z,17.6
2018-11-13T11:40:40.795Z,17.6
2018-11-13T11:41:30.095Z,17.6
2018-11-13T11:42:20.990Z,17.7
2018-11-13T11:43:10.792Z,17.7
2018-11-13T11:44:00.810Z,17.7
2018-11-13T11:44:51.510Z,17.6
2018-11-13T11:45:41.772Z,17.7
2018-11-13T11:46:31.355Z,17.7
2018-11-13T11:47:20.509Z,17.7
2018-11-13T11:48:11.752Z,17.7
2018-11-13T11:49:00.045Z,17.7
2018-11-13T11:49:51.228Z,17.7
2018-11-13T11:50:41.414Z,17.7
2018-11-13T11:51:30.781Z,17.7
2018-11-13T11:52:20.189Z,17.7
2018-11-13T11:53:11.464Z,17.7
2018-11-13T11:54:04.206Z,17.7
2018-11-13T11:54:52.404Z,17.7
2018-11-13T11:55:42.483Z,17.7
2018-11-13T11:56:31.321Z,17.7
2018-11-13T11:57:22.005Z,17.7
2018-11-13T11:58:12.017Z,17.7
2018-11-13T11:59:01.291Z,17.7
2018-11-13T11:59:51.894Z,17.8
2018-11-13T12:00:43.963Z,17.8
2018-11-13T12:01:31.569Z,17.8
2018-11-13T12:02:24.078Z,17.8
2018-11-13T12:03:12.423Z,17.8
2018-11-13T12:04:02.561Z,17.7
2018-11-13T12:04:52.948Z,17.8
2018-11-13T12:05:42.073Z,17.8
2018-11-13T12:06:32.501Z,17.8
2018-11-13T12:07:19.538Z,17.8
2018-11-13T12:08:12.581Z,17.8
2018-11-13T12:09:01.515Z,17.8
2018-11-13T12:09:52.811Z,17.8
2018-11-13T12:10:41.227Z,17.8
2018-11-13T12:11:32.035Z,17.8
2018-11-13T12:12:23.262Z,17.8
2018-11-13T12:13:12.788Z,17.8
2018-11-13T12:14:04.018Z,17.8
2018-11-13T12:14:53.957Z,17.8
2018-11-13T12:15:41.950Z,17.8
2018-11-13T12:16:32.582Z,17.8
2018-11-13T12:17:23.183Z,17.8
2018-11-13T12:18:13.297Z,17.8
2018-11-13T12:19:04.855Z,17.8